Wetterdaten: aktuell Donnerstag, 30.11.2023 15:26
Datum Zeit Temperatur Luftfeuchte Luftdruck Regen Wind Richtung Richtung Taupunkt Windchill Windben
30.11.2023 15:26 -0,7 C 95 % 1002,7 hPa 0,0 l/m 2,5 km/h (1 Bft) O-NO 71 -1,4 C -0,7 C 3,2 km/h (1 Bft)
30.11.2023 15:25 -0,7 C 95 % 1002,7 hPa 0,0 l/m 1,9 km/h (1 Bft) O-NO 70 -1,4 C -0,7 C 3,2 km/h (1 Bft)
30.11.2023 15:24 -0,7 C 95 % 1002,8 hPa 0,0 l/m 1,3 km/h (1 Bft) O-NO 70 -1,4 C -0,7 C 3,2 km/h (1 Bft)
30.11.2023 15:23 -0,7 C 95 % 1002,7 hPa 0,0 l/m 1,5 km/h (1 Bft) O-NO 65 -1,4 C -0,7 C 3,2 km/h (1 Bft)
30.11.2023 15:22 -0,7 C 95 % 1002,8 hPa 0,0 l/m 1,3 km/h (1 Bft) O-NO 64 -1,4 C -0,7 C 3,2 km/h (1 Bft)
30.11.2023 15:21 -0,7 C 95 % 1002,8 hPa 0,0 l/m 2,1 km/h (1 Bft) O-NO 67 -1,4 C -0,7 C 3,2 km/h (1 Bft)
30.11.2023 15:20 -0,7 C 95 % 1002,8 hPa 0,0 l/m 2,8 km/h (1 Bft) O 86 -1,4 C -0,7 C 4,8 km/h (1 Bft)
30.11.2023 15:19 -0,7 C 95 % 1002,8 hPa 0,0 l/m 2,4 km/h (1 Bft) NO 49 -1,4 C -0,7 C 3,2 km/h (1 Bft)
30.11.2023 15:18 -0,7 C 95 % 1002,8 hPa 0,0 l/m 0,8 km/h (0 Bft) O-NO 71 -1,4 C -0,7 C 1,6 km/h (1 Bft)
30.11.2023 15:17 -0,7 C 95 % 1002,8 hPa 0,0 l/m 1,8 km/h (1 Bft) O 85 -1,4 C -0,7 C 3,2 km/h (1 Bft)
30.11.2023 15:16 -0,7 C 95 % 1002,8 hPa 0,0 l/m 2,1 km/h (1 Bft) O 86 -1,4 C -0,7 C 4,8 km/h (1 Bft)
30.11.2023 15:15 -0,7 C 95 % 1002,7 hPa 0,0 l/m 2,1 km/h (1 Bft) O-NO 65 -1,4 C -0,7 C 3,2 km/h (1 Bft)
30.11.2023 15:14 -0,7 C 95 % 1002,7 hPa 0,0 l/m 1,5 km/h (1 Bft) NO 49 -1,4 C -0,7 C 3,2 km/h (1 Bft)
30.11.2023 15:13 -0,7 C 95 % 1002,7 hPa 0,0 l/m 0,7 km/h (0 Bft) NO 53 -1,4 C -0,7 C 3,2 km/h (1 Bft)
30.11.2023 15:12 -0,7 C 95 % 1002,6 hPa 0,0 l/m 3,2 km/h (1 Bft) NO 51 -1,4 C -0,7 C 4,8 km/h (1 Bft)
30.11.2023 15:11 -0,7 C 95 % 1002,8 hPa 0,0 l/m 1,4 km/h (1 Bft) NO 46 -1,4 C -0,7 C 3,2 km/h (1 Bft)
30.11.2023 15:10 -0,7 C 95 % 1002,8 hPa 0,0 l/m 1,7 km/h (1 Bft) O 88 -1,4 C -0,7 C 3,2 km/h (1 Bft)
30.11.2023 15:09 -0,7 C 94 % 1002,7 hPa 0,0 l/m 2,8 km/h (1 Bft) O 83 -1,5 C -0,7 C 3,2 km/h (1 Bft)
30.11.2023 15:08 -0,7 C 94 % 1002,7 hPa 0,0 l/m 1,6 km/h (1 Bft) O-NO 72 -1,5 C -0,7 C 3,2 km/h (1 Bft)
30.11.2023 15:07 -0,7 C 94 % 1002,7 hPa 0,0 l/m 2,3 km/h (1 Bft) O-NO 69 -1,5 C -0,7 C 3,2 km/h (1 Bft)
30.11.2023 15:06 -0,7 C 94 % 1002,7 hPa 0,0 l/m 1,3 km/h (1 Bft) NO 55 -1,5 C -0,7 C 3,2 km/h (1 Bft)
30.11.2023 15:05 -0,7 C 94 % 1002,7 hPa 0,0 l/m 1,5 km/h (1 Bft) NO 56 -1,5 C -0,7 C 3,2 km/h (1 Bft)
30.11.2023 15:04 -0,7 C 94 % 1002,7 hPa 0,0 l/m 1,5 km/h (1 Bft) NO 54 -1,5 C -0,7 C 3,2 km/h (1 Bft)
30.11.2023 15:03 -0,7 C 94 % 1002,7 hPa 0,0 l/m 1,8 km/h (1 Bft) O-NO 70 -1,5 C -0,7 C 3,2 km/h (1 Bft)
30.11.2023 15:02 -0,7 C 95 % 1002,7 hPa 0,0 l/m 2,4 km/h (1 Bft) O-NO 73 -1,4 C -0,7 C 3,2 km/h (1 Bft)
30.11.2023 15:01 -0,7 C 94 % 1002,7 hPa 0,0 l/m 1,9 km/h (1 Bft) O-NO 78 -1,5 C -0,7 C 4,8 km/h (1 Bft)
30.11.2023 15:00 -0,7 C 95 % 1002,8 hPa 0,0 l/m 2,0 km/h (1 Bft) SO 131 -1,4 C -0,7 C 3,2 km/h (1 Bft)
30.11.2023 14:59 -0,7 C 94 % 1002,8 hPa 0,0 l/m 0,9 km/h (0 Bft) O 92 -1,5 C -0,7 C 1,6 km/h (1 Bft)
30.11.2023 14:58 -0,6 C 94 % 1002,8 hPa 0,0 l/m 3,1 km/h (1 Bft) O 91 -1,4 C -0,6 C 4,8 km/h (1 Bft)
30.11.2023 14:57 -0,6 C 94 % 1002,8 hPa 0,0 l/m 1,9 km/h (1 Bft) O 98 -1,4 C -0,6 C 4,8 km/h (1 Bft)
30.11.2023 14:56 -0,7 C 94 % 1002,8 hPa 0,0 l/m 2,1 km/h (1 Bft) O-NO 74 -1,5 C -0,7 C 3,2 km/h (1 Bft)
30.11.2023 14:55 -0,7 C 94 % 1002,8 hPa 0,0 l/m 1,7 km/h (1 Bft) O 85 -1,5 C -0,7 C 3,2 km/h (1 Bft)
30.11.2023 14:54 -0,7 C 94 % 1002,7 hPa 0,0 l/m 1,9 km/h (1 Bft) O 94 -1,5 C -0,7 C 3,2 km/h (1 Bft)
30.11.2023 14:53 -0,7 C 94 % 1002,7 hPa 0,0 l/m 1,9 km/h (1 Bft) O-SO 107 -1,5 C -0,7 C 3,2 km/h (1 Bft)
30.11.2023 14:52 -0,7 C 94 % 1002,7 hPa 0,0 l/m 3,0 km/h (1 Bft) NO 46 -1,5 C -0,7 C 4,8 km/h (1 Bft)
30.11.2023 14:51 -0,6 C 94 % 1002,7 hPa 0,0 l/m 1,8 km/h (1 Bft) O-NO 73 -1,4 C -0,6 C 3,2 km/h (1 Bft)
30.11.2023 14:50 -0,7 C 94 % 1002,6 hPa 0,0 l/m 3,4 km/h (1 Bft) NO 42 -1,5 C -0,7 C 6,4 km/h (2 Bft)
30.11.2023 14:49 -0,7 C 94 % 1002,7 hPa 0,0 l/m 2,2 km/h (1 Bft) O-NO 72 -1,5 C -0,7 C 4,8 km/h (1 Bft)
30.11.2023 14:48 -0,7 C 94 % 1002,7 hPa 0,0 l/m 1,2 km/h (1 Bft) O-NO 71 -1,5 C -0,7 C 3,2 km/h (1 Bft)
30.11.2023 14:47 -0,7 C 94 % 1002,7 hPa 0,0 l/m 1,2 km/h (1 Bft) O 84 -1,5 C -0,7 C 3,2 km/h (1 Bft)
30.11.2023 14:46 -0,7 C 94 % 1002,7 hPa 0,0 l/m 0,7 km/h (0 Bft) O 83 -1,5 C -0,7 C 1,6 km/h (1 Bft)
30.11.2023 14:45 -0,7 C 94 % 1002,7 hPa 0,0 l/m 1,0 km/h (0 Bft) O 83 -1,5 C -0,7 C 3,2 km/h (1 Bft)
30.11.2023 14:44 -0,7 C 94 % 1002,7 hPa 0,0 l/m 1,3 km/h (1 Bft) O 82 -1,5 C -0,7 C 3,2 km/h (1 Bft)
30.11.2023 14:43 -0,7 C 94 % 1002,6 hPa 0,0 l/m 1,1 km/h (1 Bft) NO 39 -1,5 C -0,7 C 1,6 km/h (1 Bft)
30.11.2023 14:42 -0,7 C 94 % 1002,6 hPa 0,0 l/m 1,8 km/h (1 Bft) NO 39 -1,5 C -0,7 C 3,2 km/h (1 Bft)
30.11.2023 14:41 -0,7 C 94 % 1002,6 hPa 0,0 l/m 1,5 km/h (1 Bft) O-NO 63 -1,5 C -0,7 C 3,2 km/h (1 Bft)
30.11.2023 14:40 -0,7 C 94 % 1002,6 hPa 0,0 l/m 1,9 km/h (1 Bft) O 84 -1,5 C -0,7 C 3,2 km/h (1 Bft)
30.11.2023 14:39 -0,7 C 94 % 1002,7 hPa 0,0 l/m 2,1 km/h (1 Bft) O 84 -1,5 C -0,7 C 3,2 km/h (1 Bft)
30.11.2023 14:38 -0,7 C 94 % 1002,7 hPa 0,0 l/m 2,2 km/h (1 Bft) O-NO 76 -1,5 C -0,7 C 4,8 km/h (1 Bft)
30.11.2023 14:37 -0,7 C 94 % 1002,7 hPa 0,0 l/m 3,7 km/h (1 Bft) O-SO 107 -1,5 C -0,7 C 6,4 km/h (2 Bft)
30.11.2023 14:36 -0,7 C 94 % 1002,6 hPa 0,0 l/m 3,0 km/h (1 Bft) NO 49 -1,5 C -0,7 C 4,8 km/h (1 Bft)
30.11.2023 14:35 -0,7 C 94 % 1002,6 hPa 0,0 l/m 2,7 km/h (1 Bft) O-NO 70 -1,5 C -0,7 C 4,8 km/h (1 Bft)
30.11.2023 14:34 -0,7 C 94 % 1002,6 hPa 0,0 l/m 4,0 km/h (1 Bft) O 92 -1,5 C -0,7 C 4,8 km/h (1 Bft)
30.11.2023 14:33 -0,7 C 94 % 1002,7 hPa 0,0 l/m 3,6 km/h (1 Bft) O 81 -1,5 C -0,7 C 4,8 km/h (1 Bft)
30.11.2023 14:32 -0,6 C 94 % 1002,7 hPa 0,0 l/m 1,1 km/h (1 Bft) O-NO 70 -1,4 C -0,6 C 3,2 km/h (1 Bft)
30.11.2023 14:31 -0,7 C 93 % 1002,7 hPa 0,0 l/m 3,6 km/h (1 Bft) O-NO 77 -1,7 C -0,7 C 6,4 km/h (2 Bft)
30.11.2023 14:30 -0,7 C 93 % 1002,8 hPa 0,0 l/m 2,2 km/h (1 Bft) O-NO 74 -1,7 C -0,7 C 3,2 km/h (1 Bft)
30.11.2023 14:29 -0,7 C 93 % 1002,8 hPa 0,0 l/m 2,3 km/h (1 Bft) NO 48 -1,7 C -0,7 C 3,2 km/h (1 Bft)
30.11.2023 14:28 -0,7 C 94 % 1002,8 hPa 0,0 l/m 1,0 km/h (0 Bft) O-NO 60 -1,5 C -0,7 C 3,2 km/h (1 Bft)
30.11.2023 14:27 -0,7 C 94 % 1002,8 hPa 0,0 l/m 1,0 km/h (0 Bft) O-NO 74 -1,5 C -0,7 C 3,2 km/h (1 Bft)
30.11.2023 14:26 -0,7 C 93 % 1002,8 hPa 0,0 l/m 0,6 km/h (0 Bft) O-NO 76 -1,7 C -0,7 C 1,6 km/h (1 Bft)
30.11.2023 14:25 -0,7 C 93 % 1002,7 hPa 0,0 l/m 0,3 km/h (0 Bft) O-NO 66 -1,7 C -0,7 C 1,6 km/h (1 Bft)
30.11.2023 14:24 -0,7 C 93 % 1002,7 hPa 0,0 l/m 1,8 km/h (1 Bft) O-NO 66 -1,7 C -0,7 C 3,2 km/h (1 Bft)
30.11.2023 14:23 -0,7 C 93 % 1002,8 hPa 0,0 l/m 1,5 km/h (1 Bft) O-SO 108 -1,7 C -0,7 C 4,8 km/h (1 Bft)
30.11.2023 14:22 -0,6 C 93 % 1002,8 hPa 0,0 l/m 0,9 km/h (0 Bft) NO 45 -1,6 C -0,6 C 3,2 km/h (1 Bft)
30.11.2023 14:21 -0,7 C 93 % 1002,8 hPa 0,0 l/m 0,1 km/h (0 Bft) NO 43 -1,7 C -0,7 C 1,6 km/h (1 Bft)
30.11.2023 14:20 -0,6 C 93 % 1002,8 hPa 0,0 l/m 1,0 km/h (0 Bft) NO 43 -1,6 C -0,6 C 1,6 km/h (1 Bft)
30.11.2023 14:19 -0,7 C 93 % 1002,8 hPa 0,0 l/m 1,5 km/h (1 Bft) NO 42 -1,7 C -0,7 C 4,8 km/h (1 Bft)
30.11.2023 14:18 -0,6 C 93 % 1002,7 hPa 0,0 l/m 1,7 km/h (1 Bft) NO 53 -1,6 C -0,6 C 3,2 km/h (1 Bft)
30.11.2023 14:17 -0,7 C 93 % 1002,7 hPa 0,0 l/m 2,1 km/h (1 Bft) O-NO 69 -1,7 C -0,7 C 4,8 km/h (1 Bft)
30.11.2023 14:16 -0,7 C 93 % 1002,8 hPa 0,0 l/m 1,3 km/h (1 Bft) O-NO 72 -1,7 C -0,7 C 3,2 km/h (1 Bft)
30.11.2023 14:15 -0,7 C 93 % 1002,8 hPa 0,0 l/m 1,8 km/h (1 Bft) O-NO 70 -1,7 C -0,7 C 3,2 km/h (1 Bft)
30.11.2023 14:14 -0,6 C 93 % 1002,8 hPa 0,0 l/m 1,5 km/h (1 Bft) NO 51 -1,6 C -0,6 C 4,8 km/h (1 Bft)
30.11.2023 14:13 -0,6 C 93 % 1002,9 hPa 0,0 l/m 2,0 km/h (1 Bft) NO 49 -1,6 C -0,6 C 3,2 km/h (1 Bft)
30.11.2023 14:12 -0,6 C 93 % 1002,9 hPa 0,0 l/m 2,7 km/h (1 Bft) NO 47 -1,6 C -0,6 C 4,8 km/h (1 Bft)
30.11.2023 14:11 -0,7 C 93 % 1002,9 hPa 0,0 l/m 1,7 km/h (1 Bft) NO 40 -1,7 C -0,7 C 3,2 km/h (1 Bft)
30.11.2023 14:10 -0,7 C 93 % 1002,9 hPa 0,0 l/m 2,0 km/h (1 Bft) O-NO 70 -1,7 C -0,7 C 4,8 km/h (1 Bft)
30.11.2023 14:09 -0,6 C 93 % 1002,9 hPa 0,0 l/m 2,7 km/h (1 Bft) O-NO 76 -1,6 C -0,6 C 4,8 km/h (1 Bft)
30.11.2023 14:08 -0,6 C 93 % 1002,9 hPa 0,0 l/m 3,0 km/h (1 Bft) O-NO 63 -1,6 C -0,6 C 4,8 km/h (1 Bft)
30.11.2023 14:07 -0,6 C 93 % 1002,8 hPa 0,0 l/m 2,5 km/h (1 Bft) O-NO 77 -1,6 C -0,6 C 4,8 km/h (1 Bft)
30.11.2023 14:06 -0,6 C 93 % 1002,8 hPa 0,0 l/m 1,9 km/h (1 Bft) O 82 -1,6 C -0,6 C 3,2 km/h (1 Bft)
30.11.2023 14:05 -0,6 C 92 % 1002,8 hPa 0,0 l/m 2,6 km/h (1 Bft) O 82 -1,7 C -0,6 C 4,8 km/h (1 Bft)
30.11.2023 14:04 -0,6 C 92 % 1002,8 hPa 0,0 l/m 1,0 km/h (0 Bft) O 84 -1,7 C -0,6 C 3,2 km/h (1 Bft)
30.11.2023 14:03 -0,6 C 92 % 1002,8 hPa 0,0 l/m 1,3 km/h (1 Bft) O 81 -1,7 C -0,6 C 4,8 km/h (1 Bft)
30.11.2023 14:02 -0,6 C 92 % 1002,8 hPa 0,0 l/m 2,8 km/h (1 Bft) O 82 -1,7 C -0,6 C 4,8 km/h (1 Bft)
30.11.2023 14:01 -0,6 C 92 % 1002,8 hPa 0,0 l/m 3,5 km/h (1 Bft) O-SO 105 -1,7 C -0,6 C 4,8 km/h (1 Bft)
30.11.2023 14:00 -0,6 C 92 % 1002,7 hPa 0,0 l/m 2,5 km/h (1 Bft) O 99 -1,7 C -0,6 C 4,8 km/h (1 Bft)
30.11.2023 13:59 -0,5 C 92 % 1002,7 hPa 0,0 l/m 0,8 km/h (0 Bft) O 95 -1,6 C -0,5 C 1,6 km/h (1 Bft)
30.11.2023 13:58 -0,5 C 92 % 1002,7 hPa 0,0 l/m 1,7 km/h (1 Bft) O 91 -1,6 C -0,5 C 3,2 km/h (1 Bft)
30.11.2023 13:57 -0,5 C 92 % 1002,7 hPa 0,0 l/m 2,2 km/h (1 Bft) O 96 -1,6 C -0,5 C 3,2 km/h (1 Bft)
30.11.2023 13:56 -0,5 C 92 % 1002,7 hPa 0,0 l/m 2,1 km/h (1 Bft) O 88 -1,6 C -0,5 C 3,2 km/h (1 Bft)
30.11.2023 13:55 -0,5 C 92 % 1002,7 hPa 0,0 l/m 2,7 km/h (1 Bft) O 94 -1,6 C -0,5 C 4,8 km/h (1 Bft)
30.11.2023 13:54 -0,5 C 92 % 1002,7 hPa 0,0 l/m 2,3 km/h (1 Bft) O-NO 75 -1,6 C -0,5 C 4,8 km/h (1 Bft)
30.11.2023 13:53 -0,5 C 92 % 1002,7 hPa 0,0 l/m 2,6 km/h (1 Bft) O-NO 66 -1,6 C -0,5 C 4,8 km/h (1 Bft)
30.11.2023 13:52 -0,5 C 92 % 1002,7 hPa 0,0 l/m 1,3 km/h (1 Bft) O-NO 74 -1,6 C -0,5 C 4,8 km/h (1 Bft)
30.11.2023 13:51 -0,4 C 92 % 1002,7 hPa 0,0 l/m 1,5 km/h (1 Bft) O-NO 78 -1,5 C -0,4 C 3,2 km/h (1 Bft)
30.11.2023 13:50 -0,5 C 91 % 1002,8 hPa 0,0 l/m 2,9 km/h (1 Bft) O 86 -1,8 C -0,5 C 4,8 km/h (1 Bft)
30.11.2023 13:49 -0,4 C 91 % 1002,8 hPa 0,0 l/m 3,4 km/h (1 Bft) O-NO 67 -1,7 C -0,4 C 4,8 km/h (1 Bft)
30.11.2023 13:48 -0,4 C 91 % 1002,8 hPa 0,0 l/m 1,7 km/h (1 Bft) O 83 -1,7 C -0,4 C 3,2 km/h (1 Bft)
30.11.2023 13:47 -0,4 C 91 % 1002,8 hPa 0,0 l/m 2,9 km/h (1 Bft) O 86 -1,7 C -0,4 C 4,8 km/h (1 Bft)
_ Min-Zeit 05:56 11:31 14:34 - 16:59 - - 06:01 06:01 16:59
Minimum _ -2,9 C 90 % 1002,6 hPa - 0,0 km/h (0 Bft) - - -3,6 C -2,9 C 0,0 km/h (0 Bft)
_ Max-Zeit 16:00 02:02 16:08 16:00 12:39 - - 16:02 16:00 12:36
Maximum _ -0,1 C 97 % 1008,6 hPa 0,0 l/m 7,3 km/h
O-SO (2 Bft)
- - -1,1 C -0,1 C 11,3 km/h
O (2 Bft)
Durchschnitt _ -1,4 C 94 % 1006,5 hPa #0,0 l/m 2,0 km/h (1 Bft) O - -2,2 C -1,4 C 3,5 km/h (1 Bft)
(c) Wettermessnetz Ostbayern